Time;durP1;ratioP1;P1;durP2;ratioP2;P2;SDS_P1;SDS_P2;PMS_P1;PMS_P2;Temp;Humidity;BMP_temperature;BMP_pressure;BME280_temperature;BME280_humidity;BME280_pressure;Samples;Min_cycle;Max_cycle;Signal;HPM_P1;HPM_P2
2022/05/25 00:00:39;;;;;;;0.65;0.65;;;;;;;;;;5103403;28;20196;-70
2022/05/25 00:03:06;;;;;;;2.42;1.00;;;;;;;;;;5103114;28;20204;-70
2022/05/25 00:05:33;;;;;;;1.15;0.60;;;;;;;;;;5103268;28;20216;-70
2022/05/25 00:08:00;;;;;;;0.70;0.70;;;;;;;;;;5102994;28;20225;-70
2022/05/25 00:10:26;;;;;;;1.30;0.70;;;;;;;;;;5103427;28;20222;-70
2022/05/25 00:12:54;;;;;;;1.50;0.85;;;;;;;;;;5103137;28;20196;-70
2022/05/25 00:15:20;;;;;;;2.20;0.80;;;;;;;;;;5103077;28;20226;-70
2022/05/25 00:17:47;;;;;;;0.63;0.50;;;;;;;;;;5102380;28;20241;-70
2022/05/25 00:20:13;;;;;;;0.65;0.65;;;;;;;;;;5102891;28;20196;-70
2022/05/25 00:22:45;;;;;;;0.70;0.70;;;;;;;;;;5102628;28;20195;-70
2022/05/25 00:25:13;;;;;;;1.75;0.80;;;;;;;;;;5103035;28;20192;-70
2022/05/25 00:27:39;;;;;;;2.05;0.98;;;;;;;;;;5102463;28;20382;-70
2022/05/25 00:30:08;;;;;;;4.47;0.90;;;;;;;;;;5102797;28;20200;-70
2022/05/25 00:32:35;;;;;;;0.93;0.82;;;;;;;;;;5102674;28;20301;-70
2022/05/25 00:35:01;;;;;;;3.92;0.85;;;;;;;;;;5102895;28;20226;-70
2022/05/25 00:37:27;;;;;;;1.02;0.70;;;;;;;;;;5102475;28;20196;-70
2022/05/25 00:39:53;;;;;;;3.80;0.70;;;;;;;;;;5102792;28;20227;-70
2022/05/25 00:42:20;;;;;;;4.43;1.02;;;;;;;;;;5102642;28;20201;-70
2022/05/25 00:44:47;;;;;;;0.95;0.82;;;;;;;;;;5102503;28;20192;-70
2022/05/25 00:47:15;;;;;;;1.67;1.00;;;;;;;;;;5102544;28;20375;-70
2022/05/25 00:49:42;;;;;;;0.70;0.70;;;;;;;;;;5102754;28;20202;-70
2022/05/25 00:52:09;;;;;;;2.15;0.70;;;;;;;;;;5102548;28;20200;-70
2022/05/25 00:54:38;;;;;;;0.88;0.88;;;;;;;;;;5102508;28;20218;-70
2022/05/25 00:57:06;;;;;;;0.65;0.60;;;;;;;;;;5102101;28;20195;-70
2022/05/25 00:59:35;;;;;;;3.95;0.82;;;;;;;;;;5102671;28;20584;-70
2022/05/25 01:02:01;;;;;;;2.92;0.60;;;;;;;;;;5102567;28;20203;-70
2022/05/25 01:04:29;;;;;;;4.65;0.90;;;;;;;;;;5102342;28;20219;-70
2022/05/25 01:07:04;;;;;;;3.03;0.90;;;;;;;;;;5102004;28;20422;-68
2022/05/25 01:09:36;;;;;;;0.73;0.73;;;;;;;;;;5102146;28;20195;-68
2022/05/25 01:12:08;;;;;;;1.40;0.90;;;;;;;;;;5102570;28;20211;-68
2022/05/25 01:14:40;;;;;;;4.03;1.00;;;;;;;;;;5102530;28;20223;-67
2022/05/25 01:17:11;;;;;;;1.50;0.77;;;;;;;;;;5102104;28;20230;-67
2022/05/25 01:19:50;;;;;;;1.02;0.70;;;;;;;;;;5102295;28;20518;-67
2022/05/25 01:22:19;;;;;;;1.67;0.63;;;;;;;;;;5102178;28;20503;-67
2022/05/25 01:24:53;;;;;;;2.20;0.60;;;;;;;;;;5102314;28;20195;-67
2022/05/25 01:27:29;;;;;;;1.70;0.90;;;;;;;;;;5102191;28;20195;-67
2022/05/25 01:30:10;;;;;;;0.70;0.70;;;;;;;;;;5102215;28;20195;-67
2022/05/25 01:32:43;;;;;;;2.05;0.90;;;;;;;;;;5106472;28;20372;-70
2022/05/25 01:35:12;;;;;;;3.05;0.88;;;;;;;;;;5105970;28;20223;-70
2022/05/25 01:37:42;;;;;;;0.68;0.68;;;;;;;;;;5106099;28;20196;-70
2022/05/25 01:40:11;;;;;;;1.27;0.60;;;;;;;;;;5106094;28;20226;-70
2022/05/25 01:42:40;;;;;;;0.85;0.85;;;;;;;;;;5106082;28;20484;-70
2022/05/25 01:45:08;;;;;;;1.55;0.93;;;;;;;;;;5105480;28;20487;-70
2022/05/25 01:47:35;;;;;;;1.10;1.00;;;;;;;;;;5105731;28;20498;-70
2022/05/25 01:50:04;;;;;;;1.00;0.90;;;;;;;;;;5105849;28;20199;-68
2022/05/25 01:52:33;;;;;;;1.00;1.00;;;;;;;;;;5105672;28;20233;-68
2022/05/25 01:55:00;;;;;;;3.33;1.15;;;;;;;;;;5106062;28;20234;-67
2022/05/25 01:57:29;;;;;;;5.15;1.30;;;;;;;;;;5105741;28;20200;-67
2022/05/25 01:59:55;;;;;;;1.58;0.90;;;;;;;;;;5105905;28;20233;-70
2022/05/25 02:05:09;;;;;;;1.27;1.00;;;;;;;;;;5105419;28;20241;-70
2022/05/25 02:07:53;;;;;;;3.13;0.90;;;;;;;;;;5105606;28;20222;-70
2022/05/25 02:10:25;;;;;;;3.95;1.00;;;;;;;;;;5105484;28;20202;-70
2022/05/25 02:12:57;;;;;;;2.88;0.90;;;;;;;;;;5105587;28;20202;-70
2022/05/25 02:15:27;;;;;;;3.42;1.05;;;;;;;;;;5105352;28;20216;-70
2022/05/25 02:17:55;;;;;;;2.05;0.98;;;;;;;;;;5105123;28;20227;-70
2022/05/25 02:20:27;;;;;;;0.90;0.90;;;;;;;;;;5105442;28;20203;-70
2022/05/25 02:22:57;;;;;;;1.88;1.10;;;;;;;;;;5105548;28;20233;-70
2022/05/25 02:25:26;;;;;;;0.90;0.90;;;;;;;;;;5105306;28;20192;-68
2022/05/25 02:27:55;;;;;;;0.60;0.60;;;;;;;;;;5104939;28;20503;-70
2022/05/25 02:30:24;;;;;;;2.33;0.82;;;;;;;;;;5105069;28;20211;-71
2022/05/25 02:32:53;;;;;;;0.75;0.75;;;;;;;;;;5105226;28;20196;-70
2022/05/25 02:35:21;;;;;;;1.10;1.00;;;;;;;;;;5105235;28;20688;-70
2022/05/25 02:37:49;;;;;;;2.80;1.00;;;;;;;;;;5104626;28;20223;-70
2022/05/25 02:40:15;;;;;;;2.28;1.00;;;;;;;;;;5105040;28;20195;-70
2022/05/25 02:42:42;;;;;;;3.22;1.00;;;;;;;;;;5104161;28;20234;-70
2022/05/25 02:45:10;;;;;;;6.30;1.27;;;;;;;;;;5105099;28;20357;-70
2022/05/25 02:47:37;;;;;;;2.47;1.35;;;;;;;;;;5104620;28;20495;-70
2022/05/25 02:50:03;;;;;;;2.92;1.00;;;;;;;;;;5104821;28;20219;-70
2022/05/25 02:52:29;;;;;;;0.90;0.90;;;;;;;;;;5104634;28;20200;-70
2022/05/25 02:54:57;;;;;;;1.42;1.30;;;;;;;;;;5104583;28;20222;-70
2022/05/25 02:57:23;;;;;;;1.95;1.25;;;;;;;;;;5104311;28;20196;-70
2022/05/25 02:59:50;;;;;;;3.08;1.10;;;;;;;;;;5104824;28;20466;-70
2022/05/25 03:02:16;;;;;;;1.20;1.10;;;;;;;;;;5104610;28;20195;-70
2022/05/25 03:04:42;;;;;;;4.07;1.20;;;;;;;;;;5104351;28;20207;-70
2022/05/25 03:07:09;;;;;;;0.90;0.90;;;;;;;;;;5104191;28;20204;-70
2022/05/25 03:09:36;;;;;;;1.77;1.42;;;;;;;;;;5104371;28;20224;-70
2022/05/25 03:12:04;;;;;;;1.45;1.10;;;;;;;;;;5104199;28;20227;-70
2022/05/25 03:14:31;;;;;;;1.20;1.20;;;;;;;;;;5104419;28;20298;-70
2022/05/25 03:16:58;;;;;;;1.67;1.25;;;;;;;;;;5104103;28;20203;-70
2022/05/25 03:19:24;;;;;;;2.63;0.90;;;;;;;;;;5104281;28;20265;-70
2022/05/25 03:21:51;;;;;;;2.15;1.00;;;;;;;;;;5104113;28;20232;-70
2022/05/25 03:24:17;;;;;;;2.10;1.30;;;;;;;;;;5103942;28;20200;-70
2022/05/25 03:26:43;;;;;;;2.85;1.00;;;;;;;;;;5104035;28;20199;-70
2022/05/25 03:29:13;;;;;;;2.05;0.95;;;;;;;;;;5104235;28;20205;-70
2022/05/25 03:31:39;;;;;;;0.80;0.80;;;;;;;;;;5104008;28;20195;-70
2022/05/25 03:34:05;;;;;;;1.10;1.10;;;;;;;;;;5103825;28;20195;-70
2022/05/25 03:36:31;;;;;;;1.17;1.10;;;;;;;;;;5103632;28;20203;-70
2022/05/25 03:38:58;;;;;;;0.90;0.90;;;;;;;;;;5103686;28;20195;-70
2022/05/25 03:41:24;;;;;;;3.58;1.20;;;;;;;;;;5103975;28;20196;-70
2022/05/25 03:43:50;;;;;;;1.63;0.85;;;;;;;;;;5103814;28;20241;-67
2022/05/25 03:46:18;;;;;;;2.40;1.10;;;;;;;;;;5103549;28;20499;-67
2022/05/25 03:48:44;;;;;;;1.88;1.20;;;;;;;;;;5103649;28;20196;-67
2022/05/25 03:51:10;;;;;;;1.98;0.90;;;;;;;;;;5103681;28;20203;-67
2022/05/25 03:53:37;;;;;;;1.25;0.90;;;;;;;;;;5102438;28;20234;-67
2022/05/25 03:56:05;;;;;;;1.88;0.98;;;;;;;;;;5103349;28;20228;-67
2022/05/25 03:58:31;;;;;;;3.20;1.30;;;;;;;;;;5103432;28;20218;-67
2022/05/25 04:00:57;;;;;;;3.22;1.20;;;;;;;;;;5103516;28;20202;-67
2022/05/25 04:03:25;;;;;;;1.42;1.15;;;;;;;;;;5103229;28;20429;-67
2022/05/25 04:05:51;;;;;;;0.88;0.80;;;;;;;;;;5103672;28;20265;-67
2022/05/25 04:08:17;;;;;;;1.00;1.00;;;;;;;;;;5103170;28;20207;-70
2022/05/25 04:10:44;;;;;;;1.33;1.20;;;;;;;;;;5103255;28;20195;-70
2022/05/25 04:13:10;;;;;;;2.55;1.00;;;;;;;;;;5103338;28;20204;-70
2022/05/25 04:15:36;;;;;;;1.20;1.10;;;;;;;;;;5103170;28;20569;-69
2022/05/25 04:18:03;;;;;;;1.17;1.10;;;;;;;;;;5102658;28;20202;-70
2022/05/25 04:20:32;;;;;;;1.95;0.80;;;;;;;;;;5103094;28;20456;-70
2022/05/25 04:22:58;;;;;;;1.13;1.10;;;;;;;;;;5103191;28;20495;-68
2022/05/25 04:25:25;;;;;;;2.20;1.10;;;;;;;;;;5102932;28;20507;-68
2022/05/25 04:27:52;;;;;;;4.68;1.27;;;;;;;;;;5102731;28;20421;-67
2022/05/25 04:30:20;;;;;;;2.70;1.10;;;;;;;;;;5102809;28;20196;-67
2022/05/25 04:32:46;;;;;;;0.85;0.77;;;;;;;;;;5102714;28;20203;-67
2022/05/25 04:35:13;;;;;;;2.75;1.30;;;;;;;;;;5102555;28;20230;-67
2022/05/25 04:37:52;;;;;;;2.35;1.17;;;;;;;;;;5102604;28;20499;-67
2022/05/25 04:40:19;;;;;;;2.47;1.30;;;;;;;;;;5102983;28;20203;-70
2022/05/25 04:42:46;;;;;;;3.20;1.38;;;;;;;;;;5102867;28;20195;-70
2022/05/25 04:45:12;;;;;;;0.98;0.95;;;;;;;;;;5102599;28;20517;-70
2022/05/25 04:47:40;;;;;;;3.72;1.30;;;;;;;;;;5102260;28;20202;-70
2022/05/25 04:50:07;;;;;;;1.52;1.42;;;;;;;;;;5102742;28;20196;-68
2022/05/25 04:52:33;;;;;;;2.50;2.20;;;;;;;;;;5102643;28;20203;-67
2022/05/25 04:55:01;;;;;;;1.90;1.80;;;;;;;;;;5102490;28;20219;-67
2022/05/25 04:57:27;;;;;;;2.58;1.60;;;;;;;;;;5102255;28;20733;-67
2022/05/25 04:59:55;;;;;;;1.35;1.25;;;;;;;;;;5102328;28;20196;-59
2022/05/25 05:02:22;;;;;;;1.38;1.00;;;;;;;;;;5102117;28;20220;-59
2022/05/25 05:04:48;;;;;;;2.03;1.20;;;;;;;;;;5102148;28;20557;-59
2022/05/25 05:07:15;;;;;;;3.22;0.93;;;;;;;;;;5102362;28;20514;-62
2022/05/25 05:09:42;;;;;;;3.72;1.20;;;;;;;;;;5102421;28;20431;-62
2022/05/25 05:12:10;;;;;;;7.75;1.30;;;;;;;;;;5083687;28;20207;-61
2022/05/25 05:14:39;;;;;;;3.28;1.23;;;;;;;;;;5087415;28;20212;-59
2022/05/25 05:17:07;;;;;;;1.30;1.30;;;;;;;;;;5092318;28;20238;-60
2022/05/25 05:19:33;;;;;;;2.33;1.42;;;;;;;;;;5095827;28;20218;-60
2022/05/25 05:22:00;;;;;;;1.75;1.20;;;;;;;;;;5095334;28;21122;-59
2022/05/25 05:24:26;;;;;;;3.53;1.15;;;;;;;;;;5095578;28;20265;-60
2022/05/25 05:26:53;;;;;;;1.23;1.13;;;;;;;;;;5095300;28;20294;-59
2022/05/25 05:29:20;;;;;;;1.05;1.02;;;;;;;;;;5095521;28;20523;-60
2022/05/25 05:31:47;;;;;;;2.55;1.08;;;;;;;;;;5095578;28;20410;-60
2022/05/25 05:34:13;;;;;;;0.90;0.90;;;;;;;;;;5095272;28;20203;-60
2022/05/25 05:36:42;;;;;;;1.48;1.38;;;;;;;;;;5095429;28;20315;-60
2022/05/25 05:39:09;;;;;;;0.90;0.90;;;;;;;;;;5095596;28;20216;-60
2022/05/25 05:41:36;;;;;;;3.92;1.08;;;;;;;;;;5095490;28;20530;-60
2022/05/25 05:44:04;;;;;;;4.00;1.10;;;;;;;;;;5095954;28;20208;-60
2022/05/25 05:46:32;;;;;;;3.17;1.10;;;;;;;;;;5093470;28;20208;-61
2022/05/25 05:48:58;;;;;;;1.60;1.38;;;;;;;;;;5095619;28;20577;-60
2022/05/25 05:51:24;;;;;;;4.93;1.40;;;;;;;;;;5095329;28;20207;-61
2022/05/25 05:53:51;;;;;;;3.00;1.50;;;;;;;;;;5095168;28;20510;-62
2022/05/25 05:56:19;;;;;;;3.92;1.27;;;;;;;;;;5095256;28;20573;-61
2022/05/25 05:58:45;;;;;;;2.30;1.10;;;;;;;;;;5095427;28;20245;-61
2022/05/25 06:01:12;;;;;;;2.38;1.10;;;;;;;;;;5095321;28;20507;-61
2022/05/25 06:03:39;;;;;;;1.60;1.20;;;;;;;;;;5095157;28;20423;-61
2022/05/25 06:06:05;;;;;;;2.67;2.05;;;;;;;;;;5095143;28;20216;-62
2022/05/25 06:08:32;;;;;;;3.05;2.83;;;;;;;;;;5094245;28;20216;-61
2022/05/25 06:10:58;;;;;;;3.25;1.73;;;;;;;;;;5095834;28;20211;-60
2022/05/25 06:13:25;;;;;;;4.15;1.33;;;;;;;;;;5095409;28;20207;-60
2022/05/25 06:21:21;;;;;;;1.30;1.20;;;;;;;;;;5098702;28;20210;-61
2022/05/25 06:23:48;;;;;;;1.30;1.20;;;;;;;;;;5098688;28;20609;-61
2022/05/25 06:26:15;;;;;;;1.05;1.00;;;;;;;;;;5098540;28;20207;-61
2022/05/25 06:28:44;;;;;;;1.40;1.30;;;;;;;;;;5098733;28;20250;-60
2022/05/25 06:31:11;;;;;;;3.65;1.25;;;;;;;;;;5098494;28;20459;-60
2022/05/25 06:33:38;;;;;;;1.65;1.48;;;;;;;;;;5098372;28;20208;-60
2022/05/25 06:36:12;;;;;;;5.75;1.40;;;;;;;;;;5097931;28;20249;-60
2022/05/25 06:38:39;;;;;;;1.70;1.10;;;;;;;;;;5098734;28;20415;-59
2022/05/25 06:41:05;;;;;;;4.75;1.90;;;;;;;;;;5098439;28;20239;-60
2022/05/25 06:43:32;;;;;;;2.25;2.03;;;;;;;;;;5098399;28;20207;-59
2022/05/25 06:45:58;;;;;;;3.20;1.13;;;;;;;;;;5098383;28;20229;-60
2022/05/25 06:48:24;;;;;;;1.48;1.20;;;;;;;;;;5098410;28;20224;-60
2022/05/25 06:50:51;;;;;;;3.95;1.25;;;;;;;;;;5098248;28;20208;-59
2022/05/25 06:53:17;;;;;;;1.20;1.00;;;;;;;;;;5098110;28;20207;-60
2022/05/25 06:55:45;;;;;;;1.38;0.85;;;;;;;;;;5098281;28;20227;-59
2022/05/25 06:58:11;;;;;;;1.13;1.10;;;;;;;;;;5097836;28;20273;-59
2022/05/25 07:00:37;;;;;;;1.33;1.23;;;;;;;;;;5098248;28;20229;-60
2022/05/25 07:03:04;;;;;;;2.58;1.48;;;;;;;;;;5097464;28;20219;-60
2022/05/25 07:05:30;;;;;;;5.60;1.55;;;;;;;;;;5097973;28;20226;-60
2022/05/25 07:07:56;;;;;;;2.47;1.30;;;;;;;;;;5097734;28;20208;-58
2022/05/25 07:10:22;;;;;;;4.15;1.20;;;;;;;;;;5097722;28;20215;-59
2022/05/25 07:12:50;;;;;;;4.25;1.20;;;;;;;;;;5097124;28;20445;-62
2022/05/25 07:15:16;;;;;;;2.90;1.20;;;;;;;;;;5097642;28;20207;-60
2022/05/25 07:17:42;;;;;;;2.72;1.10;;;;;;;;;;5097649;28;20307;-60
2022/05/25 07:20:09;;;;;;;1.30;1.20;;;;;;;;;;5097910;28;20207;-60
2022/05/25 07:22:36;;;;;;;3.55;1.58;;;;;;;;;;5097331;28;20239;-61
2022/05/25 07:25:02;;;;;;;5.18;1.63;;;;;;;;;;5097796;28;20207;-58
2022/05/25 07:27:29;;;;;;;2.05;1.60;;;;;;;;;;5097351;28;20210;-59
2022/05/25 07:29:56;;;;;;;4.40;1.67;;;;;;;;;;5097970;28;20208;-61
2022/05/25 07:32:27;;;;;;;1.70;1.15;;;;;;;;;;5097640;28;20542;-59
2022/05/25 07:34:57;;;;;;;1.25;1.25;;;;;;;;;;5098222;28;20222;-61
2022/05/25 07:37:24;;;;;;;1.25;1.10;;;;;;;;;;5097664;28;20554;-60
2022/05/25 07:39:51;;;;;;;2.97;1.60;;;;;;;;;;5098066;28;20522;-61
2022/05/25 07:42:18;;;;;;;2.95;1.35;;;;;;;;;;5097636;28;20405;-60
2022/05/25 07:44:46;;;;;;;2.33;1.23;;;;;;;;;;5097645;28;20279;-59
2022/05/25 07:47:14;;;;;;;2.88;1.08;;;;;;;;;;5097972;28;20207;-60
2022/05/25 07:49:41;;;;;;;1.52;1.05;;;;;;;;;;5097910;28;20230;-61
2022/05/25 07:52:07;;;;;;;4.90;1.00;;;;;;;;;;5097738;28;20210;-61
2022/05/25 07:54:34;;;;;;;1.65;0.85;;;;;;;;;;5097939;28;20207;-61
2022/05/25 07:57:00;;;;;;;2.92;1.00;;;;;;;;;;5097239;28;20265;-61
2022/05/25 07:59:27;;;;;;;1.98;1.20;;;;;;;;;;5096854;28;20205;-60
2022/05/25 08:07:29;;;;;;;5.28;0.98;;;;;;;;;;5081650;28;20241;-60
2022/05/25 08:09:58;;;;;;;3.25;1.00;;;;;;;;;;5097285;28;20204;-60
2022/05/25 08:12:25;;;;;;;1.85;1.00;;;;;;;;;;5096874;28;20504;-60
2022/05/25 08:14:51;;;;;;;4.65;1.08;;;;;;;;;;5097484;28;20214;-60
2022/05/25 08:17:17;;;;;;;1.38;1.10;;;;;;;;;;5097065;28;20458;-61
2022/05/25 08:19:45;;;;;;;3.03;1.10;;;;;;;;;;5097332;28;20249;-59
2022/05/25 08:22:11;;;;;;;0.95;0.77;;;;;;;;;;5096905;28;20272;-60
2022/05/25 08:24:37;;;;;;;3.17;0.85;;;;;;;;;;5097345;28;20212;-60
2022/05/25 08:27:04;;;;;;;1.08;0.98;;;;;;;;;;5097108;28;20226;-60
2022/05/25 08:29:30;;;;;;;0.95;0.77;;;;;;;;;;5097443;28;20222;-60
2022/05/25 08:31:57;;;;;;;1.25;0.90;;;;;;;;;;5098248;28;20249;-60
2022/05/25 08:34:25;;;;;;;1.63;0.70;;;;;;;;;;5097090;28;20207;-60
2022/05/25 08:36:53;;;;;;;0.80;0.80;;;;;;;;;;5096397;28;20399;-59
2022/05/25 08:39:19;;;;;;;2.75;1.10;;;;;;;;;;5096437;28;20265;-59
2022/05/25 08:41:46;;;;;;;1.20;0.80;;;;;;;;;;5096377;28;20261;-58
2022/05/25 08:44:12;;;;;;;2.63;1.02;;;;;;;;;;5096808;28;20207;-57
2022/05/25 08:46:40;;;;;;;3.38;1.05;;;;;;;;;;5096465;28;20434;-58
2022/05/25 08:49:10;;;;;;;1.42;0.85;;;;;;;;;;5096959;28;20207;-60
2022/05/25 08:51:42;;;;;;;1.33;0.80;;;;;;;;;;5096273;28;20511;-60
2022/05/25 08:54:10;;;;;;;1.17;0.70;;;;;;;;;;5096918;28;20534;-60
2022/05/25 08:56:38;;;;;;;2.20;0.80;;;;;;;;;;5096286;28;20238;-60
2022/05/25 08:59:06;;;;;;;0.85;0.65;;;;;;;;;;5096827;28;20215;-59
2022/05/25 09:01:34;;;;;;;1.30;0.60;;;;;;;;;;5096292;28;20208;-59
2022/05/25 09:04:04;;;;;;;2.85;0.70;;;;;;;;;;5096552;28;20215;-60
2022/05/25 09:06:35;;;;;;;1.63;0.90;;;;;;;;;;5096410;28;20219;-60
2022/05/25 09:09:04;;;;;;;2.42;0.70;;;;;;;;;;5096738;28;20218;-60
2022/05/25 09:11:35;;;;;;;1.00;0.93;;;;;;;;;;5096231;28;20215;-60
2022/05/25 09:14:03;;;;;;;1.10;0.98;;;;;;;;;;5096660;28;20215;-59
2022/05/25 09:16:32;;;;;;;3.22;2.03;;;;;;;;;;5095998;28;20225;-60
2022/05/25 09:19:01;;;;;;;1.75;0.50;;;;;;;;;;5096626;28;20230;-60
2022/05/25 09:21:30;;;;;;;0.63;0.50;;;;;;;;;;5096268;28;20231;-60
2022/05/25 09:23:57;;;;;;;2.20;0.60;;;;;;;;;;5096588;28;20208;-60
2022/05/25 09:26:25;;;;;;;4.38;0.70;;;;;;;;;;5096506;28;20240;-60
2022/05/25 09:28:54;;;;;;;3.45;0.60;;;;;;;;;;5096399;28;20215;-60
2022/05/25 09:31:24;;;;;;;2.58;0.40;;;;;;;;;;5096314;28;20208;-59
2022/05/25 09:33:52;;;;;;;3.25;0.70;;;;;;;;;;5096241;28;20265;-58
2022/05/25 09:36:21;;;;;;;0.60;0.60;;;;;;;;;;5096406;28;20219;-60
2022/05/25 09:38:53;;;;;;;0.50;0.50;;;;;;;;;;5096298;28;20207;-60
2022/05/25 09:41:21;;;;;;;3.60;1.42;;;;;;;;;;5095895;28;20452;-60
2022/05/25 09:43:52;;;;;;;2.05;0.50;;;;;;;;;;5095919;28;20535;-59
2022/05/25 09:46:23;;;;;;;2.50;0.85;;;;;;;;;;5096041;28;20210;-61
2022/05/25 09:48:51;;;;;;;1.05;0.60;;;;;;;;;;5096123;28;20278;-60
2022/05/25 09:51:24;;;;;;;1.58;0.63;;;;;;;;;;5096299;28;20276;-59
2022/05/25 09:53:51;;;;;;;1.55;0.50;;;;;;;;;;5099799;28;20519;-60
2022/05/25 09:56:20;;;;;;;0.80;0.50;;;;;;;;;;5099880;28;20265;-60
2022/05/25 09:58:50;;;;;;;0.98;0.50;;;;;;;;;;5100171;28;20208;-58
2022/05/25 10:01:21;;;;;;;1.65;0.70;;;;;;;;;;5099816;28;20452;-59
2022/05/25 10:03:50;;;;;;;2.00;0.90;;;;;;;;;;5099675;28;20216;-59
2022/05/25 10:06:18;;;;;;;3.33;1.02;;;;;;;;;;5099783;28;20294;-58
2022/05/25 10:08:45;;;;;;;2.05;0.57;;;;;;;;;;5099913;28;20208;-61
2022/05/25 10:11:27;;;;;;;2.75;0.70;;;;;;;;;;5099986;28;20562;-59
2022/05/25 10:13:55;;;;;;;1.88;0.80;;;;;;;;;;5099476;28;20271;-59
2022/05/25 10:16:22;;;;;;;1.02;0.93;;;;;;;;;;5093071;28;20269;-59
2022/05/25 10:18:50;;;;;;;1.27;1.00;;;;;;;;;;5096522;28;20531;-59
2022/05/25 10:21:23;;;;;;;2.85;0.70;;;;;;;;;;5097066;28;20265;-58
2022/05/25 10:23:50;;;;;;;1.73;0.68;;;;;;;;;;5097701;28;20203;-59
2022/05/25 10:26:19;;;;;;;1.40;0.70;;;;;;;;;;5097563;28;20465;-59
2022/05/25 10:28:46;;;;;;;1.52;1.45;;;;;;;;;;5097488;28;20235;-58
2022/05/25 10:36:49;;;;;;;2.55;0.57;;;;;;;;;;5056539;28;20223;-59
2022/05/25 10:39:19;;;;;;;1.27;0.63;;;;;;;;;;5099414;28;20303;-59
2022/05/25 10:41:58;;;;;;;2.53;0.70;;;;;;;;;;5098911;28;20392;-59
2022/05/25 10:44:25;;;;;;;2.58;0.68;;;;;;;;;;5099203;28;20781;-59
2022/05/25 10:46:54;;;;;;;1.88;0.60;;;;;;;;;;5098964;28;20407;-59
2022/05/25 10:49:25;;;;;;;0.85;0.60;;;;;;;;;;5083558;28;20212;-59
2022/05/25 10:51:54;;;;;;;2.80;0.77;;;;;;;;;;5096659;28;20633;-59
2022/05/25 10:57:19;;;;;;;3.38;0.70;;;;;;;;;;5096478;28;20293;-59
2022/05/25 10:59:47;;;;;;;0.50;0.50;;;;;;;;;;5096369;28;20207;-59
2022/05/25 11:02:19;;;;;;;1.70;0.63;;;;;;;;;;5095176;28;20196;-60
2022/05/25 11:05:03;;;;;;;3.13;0.52;;;;;;;;;;5096003;28;20446;-60
2022/05/25 11:07:33;;;;;;;2.83;0.60;;;;;;;;;;5096235;28;20203;-60
2022/05/25 11:10:07;;;;;;;2.28;0.52;;;;;;;;;;5096508;28;20204;-59
2022/05/25 11:12:36;;;;;;;0.45;0.40;;;;;;;;;;5095694;28;20207;-60
2022/05/25 11:15:07;;;;;;;0.75;0.60;;;;;;;;;;5096040;28;20245;-60
2022/05/25 11:17:40;;;;;;;0.57;0.50;;;;;;;;;;5095933;28;20231;-60
2022/05/25 11:20:14;;;;;;;0.95;0.50;;;;;;;;;;5095494;28;20542;-60
2022/05/25 11:22:59;;;;;;;4.35;0.60;;;;;;;;;;5095747;28;20228;-62
2022/05/25 11:25:43;;;;;;;2.55;0.47;;;;;;;;;;5096287;28;20208;-60
2022/05/25 11:28:16;;;;;;;1.52;0.30;;;;;;;;;;5096062;28;20279;-61
2022/05/25 11:30:46;;;;;;;0.88;0.45;;;;;;;;;;5096813;28;20491;-60
2022/05/25 11:33:19;;;;;;;0.43;0.43;;;;;;;;;;5097945;28;20207;-59
2022/05/25 11:35:51;;;;;;;0.45;0.40;;;;;;;;;;5098164;28;20207;-59
2022/05/25 11:38:33;;;;;;;0.43;0.40;;;;;;;;;;5097969;28;20228;-59
2022/05/25 11:41:06;;;;;;;1.40;0.50;;;;;;;;;;5097991;28;20238;-60
2022/05/25 11:43:43;;;;;;;0.43;0.40;;;;;;;;;;5097625;28;20207;-61
2022/05/25 11:46:15;;;;;;;0.88;0.47;;;;;;;;;;5097875;28;20214;-58
2022/05/25 11:48:47;;;;;;;0.73;0.50;;;;;;;;;;5092167;28;20208;-61
2022/05/25 11:51:18;;;;;;;1.45;0.50;;;;;;;;;;5097845;28;20211;-59
2022/05/25 11:53:57;;;;;;;1.00;0.50;;;;;;;;;;5096607;28;20231;-59
2022/05/25 11:56:31;;;;;;;2.15;0.98;;;;;;;;;;5097313;28;20235;-59
2022/05/25 11:59:05;;;;;;;1.75;0.50;;;;;;;;;;5096505;28;20249;-59
2022/05/25 12:01:36;;;;;;;1.10;0.50;;;;;;;;;;5096972;28;20384;-57
2022/05/25 12:04:23;;;;;;;0.98;0.40;;;;;;;;;;5097467;28;20486;-58
2022/05/25 12:07:04;;;;;;;1.85;0.55;;;;;;;;;;5097421;28;20223;-59
2022/05/25 12:09:37;;;;;;;2.63;0.47;;;;;;;;;;5076147;28;20512;-60
2022/05/25 12:12:07;;;;;;;1.80;0.35;;;;;;;;;;5076925;28;20250;-60
2022/05/25 12:14:39;;;;;;;0.95;0.60;;;;;;;;;;5076449;28;20256;-58
2022/05/25 12:17:08;;;;;;;2.35;0.50;;;;;;;;;;5077191;28;20227;-59
2022/05/25 12:19:36;;;;;;;1.75;0.40;;;;;;;;;;5076856;28;20204;-59
2022/05/25 12:22:04;;;;;;;2.58;0.60;;;;;;;;;;5076330;28;20204;-60
2022/05/25 12:24:32;;;;;;;1.98;0.50;;;;;;;;;;5076833;28;20212;-59
2022/05/25 12:27:02;;;;;;;0.50;0.40;;;;;;;;;;5076637;28;20441;-61
2022/05/25 12:29:31;;;;;;;0.68;0.68;;;;;;;;;;5076717;28;20239;-59
2022/05/25 12:31:57;;;;;;;2.25;0.50;;;;;;;;;;5076580;28;20218;-59
2022/05/25 12:34:27;;;;;;;1.55;0.45;;;;;;;;;;5076399;28;20254;-60
2022/05/25 12:36:54;;;;;;;1.55;0.50;;;;;;;;;;5076472;28;20245;-59
2022/05/25 12:39:35;;;;;;;1.75;0.40;;;;;;;;;;5076608;28;20215;-60
2022/05/25 12:42:31;;;;;;;1.88;0.60;;;;;;;;;;5076107;28;20207;-69
2022/05/25 12:50:39;;;;;;;1.35;0.60;;;;;;;;;;5077235;28;20242;-70
2022/05/25 12:53:19;;;;;;;0.40;0.38;;;;;;;;;;5076589;28;20231;-70
2022/05/25 12:55:53;;;;;;;2.70;0.43;;;;;;;;;;5077018;28;20546;-70
2022/05/25 12:58:39;;;;;;;2.75;0.47;;;;;;;;;;5076594;28;20235;-71
2022/05/25 13:01:06;;;;;;;15.93;0.90;;;;;;;;;;5076974;28;20396;-69
2022/05/25 13:03:39;;;;;;;2.53;0.60;;;;;;;;;;5076369;28;20424;-69
2022/05/25 13:06:06;;;;;;;2.75;0.60;;;;;;;;;;5076369;28;20231;-70
2022/05/25 13:09:05;;;;;;;1.65;0.68;;;;;;;;;;5090598;28;20637;-70
2022/05/25 13:11:34;;;;;;;1.85;0.40;;;;;;;;;;5096940;28;20451;-69
2022/05/25 13:14:02;;;;;;;2.15;0.55;;;;;;;;;;5096653;28;20516;-70
2022/05/25 13:16:51;;;;;;;6.30;0.50;;;;;;;;;;5096775;28;20207;-70
2022/05/25 13:19:18;;;;;;;0.82;0.70;;;;;;;;;;5096467;28;20458;-70
2022/05/25 13:21:45;;;;;;;1.13;0.40;;;;;;;;;;5092494;28;20250;-70
2022/05/25 13:24:33;;;;;;;1.80;0.50;;;;;;;;;;5079838;28;20210;-69
2022/05/25 13:27:07;;;;;;;0.43;0.43;;;;;;;;;;5105395;28;20241;-70
2022/05/25 13:29:39;;;;;;;3.35;0.70;;;;;;;;;;5106248;28;20202;-70
2022/05/25 13:32:09;;;;;;;1.02;0.52;;;;;;;;;;5105650;28;20495;-70
2022/05/25 13:34:35;;;;;;;1.33;0.60;;;;;;;;;;5105502;28;20195;-70
2022/05/25 13:37:05;;;;;;;0.77;0.50;;;;;;;;;;5104833;28;20195;-70
2022/05/25 13:39:32;;;;;;;1.63;0.32;;;;;;;;;;5105745;28;20202;-71
2022/05/25 13:42:01;;;;;;;0.88;0.45;;;;;;;;;;5105492;28;20227;-70
2022/05/25 13:44:29;;;;;;;0.40;0.40;;;;;;;;;;5105917;28;20202;-70
2022/05/25 13:46:58;;;;;;;1.83;0.40;;;;;;;;;;5105347;28;20195;-70
2022/05/25 13:49:25;;;;;;;1.95;0.60;;;;;;;;;;5105847;28;20195;-70
2022/05/25 13:52:08;;;;;;;1.05;0.40;;;;;;;;;;5106195;28;20195;-70
2022/05/25 13:54:35;;;;;;;6.15;0.60;;;;;;;;;;5105961;28;20199;-71
2022/05/25 13:57:01;;;;;;;3.50;0.47;;;;;;;;;;5105731;28;20195;-71
2022/05/25 13:59:30;;;;;;;1.10;0.40;;;;;;;;;;5105645;28;20417;-71
2022/05/25 14:02:17;;;;;;;1.02;0.40;;;;;;;;;;5105629;28;20195;-71
2022/05/25 14:04:45;;;;;;;0.82;0.40;;;;;;;;;;5100400;28;20211;-71
2022/05/25 14:07:26;;;;;;;1.75;0.60;;;;;;;;;;5105517;28;20195;-70
2022/05/25 14:12:38;;;;;;;0.60;0.30;;;;;;;;;;5105707;28;20509;-70
2022/05/25 14:15:05;;;;;;;2.28;0.50;;;;;;;;;;5105616;28;20195;-70
2022/05/25 14:17:32;;;;;;;0.47;0.47;;;;;;;;;;5105093;28;20202;-71
2022/05/25 14:20:02;;;;;;;2.85;0.63;;;;;;;;;;5105382;28;20222;-70
2022/05/25 14:22:32;;;;;;;1.85;0.40;;;;;;;;;;5105371;28;20389;-70
2022/05/25 14:24:59;;;;;;;0.43;0.40;;;;;;;;;;5105153;28;20241;-70
2022/05/25 14:27:27;;;;;;;1.55;0.40;;;;;;;;;;5105410;28;20207;-71
2022/05/25 14:29:54;;;;;;;2.40;0.57;;;;;;;;;;5105366;28;20495;-70
2022/05/25 14:32:23;;;;;;;1.83;0.60;;;;;;;;;;5105225;28;20381;-71
2022/05/25 14:34:50;;;;;;;1.77;0.50;;;;;;;;;;5105198;28;20532;-71
2022/05/25 14:37:19;;;;;;;0.57;0.50;;;;;;;;;;5103978;28;20203;-71
2022/05/25 14:39:46;;;;;;;0.52;0.52;;;;;;;;;;5105037;28;20259;-70
2022/05/25 14:42:13;;;;;;;1.77;0.40;;;;;;;;;;5105096;28;20195;-71
2022/05/25 14:44:45;;;;;;;1.77;0.60;;;;;;;;;;5105184;28;20203;-71
2022/05/25 14:47:13;;;;;;;3.22;0.45;;;;;;;;;;5104794;28;20429;-70
2022/05/25 14:49:39;;;;;;;0.45;0.38;;;;;;;;;;5104713;28;20262;-70
2022/05/25 14:52:10;;;;;;;0.40;0.40;;;;;;;;;;5105182;28;20199;-71
2022/05/25 14:54:38;;;;;;;1.67;0.40;;;;;;;;;;5105079;28;20199;-71
2022/05/25 14:57:04;;;;;;;6.75;0.55;;;;;;;;;;5104589;28;20298;-71
2022/05/25 14:59:32;;;;;;;0.85;0.45;;;;;;;;;;5104634;28;20554;-71
2022/05/25 15:01:59;;;;;;;0.50;0.50;;;;;;;;;;5104745;28;20396;-71
2022/05/25 15:04:30;;;;;;;4.80;0.40;;;;;;;;;;5104343;28;20217;-71
2022/05/25 15:06:57;;;;;;;3.38;0.50;;;;;;;;;;5104127;28;20212;-71
2022/05/25 15:09:25;;;;;;;1.80;0.45;;;;;;;;;;5104578;28;20491;-71
2022/05/25 15:12:01;;;;;;;2.83;0.50;;;;;;;;;;5104544;28;20199;-71
2022/05/25 15:20:06;;;;;;;0.73;0.50;;;;;;;;;;5104449;28;20198;-71
2022/05/25 15:22:35;;;;;;;2.38;0.40;;;;;;;;;;5104252;28;20498;-71
2022/05/25 15:25:02;;;;;;;1.35;0.50;;;;;;;;;;5104086;28;20199;-71
2022/05/25 15:27:33;;;;;;;3.10;0.40;;;;;;;;;;5104307;28;20198;-71
2022/05/25 15:30:01;;;;;;;0.32;0.32;;;;;;;;;;5104416;28;20195;-71